Time;durP1;ratioP1;P1;durP2;ratioP2;P2;SDS_P1;SDS_P2;PMS_P1;PMS_P2;Temp;Humidity;BMP_temperature;BMP_pressure;BME280_temperature;BME280_humidity;BME280_pressure;Samples;Min_cycle;Max_cycle;Signal;HPM_P1;HPM_P2
2024/01/17 00:00:39;;;;;;;13.45;7.63;;;;;;;;;;5055558;28;20036;-81
2024/01/17 00:03:06;;;;;;;15.00;6.65;;;;;;;;;;5055282;28;20036;-81
2024/01/17 00:05:32;;;;;;;11.60;7.05;;;;;;;;;;5056263;28;20040;-81
2024/01/17 00:07:57;;;;;;;17.40;8.48;;;;;;;;;;5055567;28;20110;-81
2024/01/17 00:10:24;;;;;;;12.90;5.75;;;;;;;;;;5055636;28;20036;-81
2024/01/17 00:12:49;;;;;;;14.38;6.85;;;;;;;;;;5055326;28;20045;-81
2024/01/17 00:15:15;;;;;;;18.13;8.15;;;;;;;;;;5056061;28;20039;-81
2024/01/17 00:17:40;;;;;;;15.68;7.18;;;;;;;;;;5054734;28;20061;-81
2024/01/17 00:20:06;;;;;;;18.75;9.27;;;;;;;;;;5055314;28;20041;-80
2024/01/17 00:22:32;;;;;;;14.55;7.05;;;;;;;;;;5036916;28;20040;-81
2024/01/17 00:24:57;;;;;;;15.85;8.05;;;;;;;;;;5055483;28;20044;-81
2024/01/17 00:27:25;;;;;;;11.32;5.20;;;;;;;;;;5055637;28;20037;-80
2024/01/17 00:29:57;;;;;;;10.25;4.93;;;;;;;;;;5055483;28;20048;-81
2024/01/17 00:32:23;;;;;;;8.80;5.97;;;;;;;;;;5054942;28;20037;-81
2024/01/17 00:34:48;;;;;;;9.45;5.22;;;;;;;;;;5053915;28;20064;-80
2024/01/17 00:37:14;;;;;;;8.82;5.47;;;;;;;;;;5054807;28;20090;-80
2024/01/17 00:39:39;;;;;;;9.68;5.57;;;;;;;;;;5055954;28;20099;-80
2024/01/17 00:42:06;;;;;;;8.35;4.45;;;;;;;;;;5055194;28;20458;-82
2024/01/17 00:44:31;;;;;;;9.48;4.78;;;;;;;;;;5052336;28;20109;-81
2024/01/17 00:46:56;;;;;;;6.65;4.07;;;;;;;;;;5052824;28;20065;-80
2024/01/17 00:49:22;;;;;;;11.00;5.07;;;;;;;;;;5054343;28;20045;-80
2024/01/17 00:51:47;;;;;;;17.30;6.75;;;;;;;;;;5053544;28;20064;-80
2024/01/17 00:54:12;;;;;;;11.52;6.35;;;;;;;;;;5054771;28;20121;-81
2024/01/17 00:56:39;;;;;;;8.75;6.13;;;;;;;;;;5054256;28;20033;-81
2024/01/17 00:59:04;;;;;;;8.43;5.10;;;;;;;;;;5053188;28;20107;-80
2024/01/17 01:01:30;;;;;;;6.25;4.13;;;;;;;;;;5053257;28;20041;-80
2024/01/17 01:03:55;;;;;;;8.32;5.63;;;;;;;;;;5053877;28;20040;-80
2024/01/17 01:06:20;;;;;;;17.67;5.95;;;;;;;;;;5053789;28;20025;-82
2024/01/17 01:08:46;;;;;;;8.23;4.80;;;;;;;;;;5054846;28;20509;-81
2024/01/17 01:11:11;;;;;;;4.90;3.63;;;;;;;;;;5054585;28;20037;-80
2024/01/17 01:13:36;;;;;;;9.52;5.50;;;;;;;;;;5051744;28;20051;-80
2024/01/17 01:16:03;;;;;;;4.72;3.47;;;;;;;;;;5054261;28;20055;-81
2024/01/17 01:18:29;;;;;;;11.90;5.68;;;;;;;;;;5053707;28;20041;-81
2024/01/17 01:20:55;;;;;;;11.15;5.85;;;;;;;;;;5053509;28;20044;-81
2024/01/17 01:23:24;;;;;;;10.68;6.07;;;;;;;;;;5054154;28;20044;-81
2024/01/17 01:25:50;;;;;;;10.45;5.72;;;;;;;;;;5057823;28;20502;-81
2024/01/17 01:28:16;;;;;;;14.25;7.35;;;;;;;;;;5057395;28;20040;-81
2024/01/17 01:30:41;;;;;;;10.75;6.15;;;;;;;;;;5058068;28;20132;-81
2024/01/17 01:33:07;;;;;;;11.13;4.93;;;;;;;;;;5057223;28;20105;-81
2024/01/17 01:35:32;;;;;;;9.85;4.68;;;;;;;;;;5059620;28;20036;-81
2024/01/17 01:37:58;;;;;;;11.95;5.10;;;;;;;;;;5058163;28;20053;-80
2024/01/17 01:40:23;;;;;;;13.48;5.20;;;;;;;;;;5057759;28;20120;-82
2024/01/17 01:42:48;;;;;;;4.88;3.60;;;;;;;;;;5057092;28;20071;-81
2024/01/17 01:45:14;;;;;;;6.55;4.68;;;;;;;;;;5056801;28;20124;-81
2024/01/17 01:47:39;;;;;;;16.05;5.80;;;;;;;;;;5056557;28;20499;-81
2024/01/17 01:50:05;;;;;;;16.67;5.18;;;;;;;;;;5057153;28;20120;-81
2024/01/17 01:52:35;;;;;;;10.68;5.22;;;;;;;;;;5057237;28;20075;-81
2024/01/17 01:55:02;;;;;;;10.85;5.28;;;;;;;;;;5056093;28;20057;-81
2024/01/17 01:57:29;;;;;;;9.73;5.72;;;;;;;;;;5037838;28;20087;-81
2024/01/17 01:59:55;;;;;;;8.02;4.63;;;;;;;;;;5067852;28;20045;-81
2024/01/17 02:02:21;;;;;;;10.23;5.22;;;;;;;;;;5039020;28;20187;-81
2024/01/17 02:04:47;;;;;;;10.35;5.75;;;;;;;;;;5056697;28;20037;-81
2024/01/17 02:07:14;;;;;;;7.40;4.65;;;;;;;;;;5056402;28;20079;-81
2024/01/17 02:09:40;;;;;;;7.35;5.05;;;;;;;;;;5055414;28;20033;-81
2024/01/17 02:12:07;;;;;;;8.43;4.97;;;;;;;;;;5055400;28;20163;-80
2024/01/17 02:14:32;;;;;;;8.95;5.78;;;;;;;;;;5056980;28;20032;-81
2024/01/17 02:16:58;;;;;;;6.43;3.88;;;;;;;;;;5057407;28;20063;-81
2024/01/17 02:19:26;;;;;;;8.80;5.38;;;;;;;;;;5058279;28;20041;-80
2024/01/17 02:21:51;;;;;;;10.63;5.90;;;;;;;;;;5056251;28;20041;-80
2024/01/17 02:24:20;;;;;;;6.85;4.70;;;;;;;;;;5057046;28;20035;-81
2024/01/17 02:26:46;;;;;;;7.20;3.97;;;;;;;;;;5057949;28;20069;-81
2024/01/17 02:29:11;;;;;;;12.95;6.20;;;;;;;;;;5056626;28;20064;-81
2024/01/17 02:31:37;;;;;;;9.70;5.50;;;;;;;;;;5091220;28;20044;-82
2024/01/17 02:34:03;;;;;;;11.35;5.30;;;;;;;;;;5058183;28;20045;-81
2024/01/17 02:36:28;;;;;;;9.10;5.50;;;;;;;;;;5059323;28;20036;-82
2024/01/17 02:38:53;;;;;;;10.93;6.60;;;;;;;;;;5041043;28;20056;-83
2024/01/17 02:41:19;;;;;;;10.93;5.18;;;;;;;;;;5057613;28;20032;-82
2024/01/17 02:43:44;;;;;;;7.60;5.15;;;;;;;;;;5057397;28;20033;-82
2024/01/17 02:46:09;;;;;;;9.88;6.53;;;;;;;;;;5056072;28;20041;-81
2024/01/17 02:48:35;;;;;;;9.10;5.68;;;;;;;;;;5057731;28;20052;-81
2024/01/17 02:51:00;;;;;;;9.05;5.65;;;;;;;;;;5058055;28;20033;-82
2024/01/17 02:53:25;;;;;;;11.10;7.03;;;;;;;;;;5057331;28;20036;-81
2024/01/17 02:55:51;;;;;;;15.85;7.85;;;;;;;;;;5056899;28;20446;-81
2024/01/17 02:58:16;;;;;;;8.10;5.70;;;;;;;;;;5057851;28;20065;-81
2024/01/17 03:00:43;;;;;;;9.23;5.18;;;;;;;;;;5057471;28;20049;-83
2024/01/17 03:03:10;;;;;;;9.20;5.65;;;;;;;;;;5056760;28;20040;-81
2024/01/17 03:05:37;;;;;;;7.95;4.65;;;;;;;;;;5057939;28;20416;-82
2024/01/17 03:08:06;;;;;;;6.13;4.30;;;;;;;;;;5057473;28;20071;-83
2024/01/17 03:10:32;;;;;;;9.27;5.78;;;;;;;;;;5053650;28;20040;-83
2024/01/17 03:12:58;;;;;;;6.75;4.63;;;;;;;;;;5056304;28;20041;-81
2024/01/17 03:15:23;;;;;;;7.68;4.85;;;;;;;;;;5057477;28;20075;-80
2024/01/17 03:17:49;;;;;;;11.20;5.55;;;;;;;;;;5057836;28;20033;-82
2024/01/17 03:20:14;;;;;;;6.95;4.95;;;;;;;;;;5057537;28;20021;-81
2024/01/17 03:22:40;;;;;;;11.30;5.30;;;;;;;;;;5059671;28;20048;-81
2024/01/17 03:25:07;;;;;;;13.93;5.90;;;;;;;;;;5059426;28;20033;-82
2024/01/17 03:27:32;;;;;;;108.25;8.63;;;;;;;;;;5059420;28;20033;-82
2024/01/17 03:29:57;;;;;;;174.90;12.02;;;;;;;;;;5057784;28;20124;-82
2024/01/17 03:32:23;;;;;;;16.83;4.95;;;;;;;;;;5063362;28;20051;-82
2024/01/17 03:34:49;;;;;;;8.70;5.47;;;;;;;;;;5061890;28;20071;-82
2024/01/17 03:37:15;;;;;;;44.10;7.18;;;;;;;;;;5055251;28;20036;-82
2024/01/17 03:39:46;;;;;;;30.20;5.85;;;;;;;;;;5055489;28;20044;-81
2024/01/17 03:42:16;;;;;;;201.35;13.82;;;;;;;;;;5057208;28;20036;-82
2024/01/17 03:44:43;;;;;;;6.22;4.45;;;;;;;;;;5059031;28;20032;-82
2024/01/17 03:47:08;;;;;;;11.70;4.88;;;;;;;;;;5057435;28;20043;-83
2024/01/17 03:49:34;;;;;;;678.20;41.20;;;;;;;;;;5057448;28;20139;-80
2024/01/17 03:51:59;;;;;;;264.25;17.25;;;;;;;;;;5055725;28;20048;-82
2024/01/17 03:54:24;;;;;;;238.50;14.38;;;;;;;;;;5057505;28;20037;-82
2024/01/17 03:56:50;;;;;;;221.13;14.25;;;;;;;;;;5057822;28;20037;-82
2024/01/17 03:59:15;;;;;;;47.72;6.88;;;;;;;;;;5056866;28;20041;-82
2024/01/17 04:01:44;;;;;;;44.00;6.25;;;;;;;;;;5057235;28;20029;-81
2024/01/17 04:04:10;;;;;;;8.27;4.88;;;;;;;;;;5054537;28;20063;-82
2024/01/17 04:06:36;;;;;;;7.72;4.05;;;;;;;;;;5056050;28;20033;-82
2024/01/17 04:09:01;;;;;;;9.13;4.43;;;;;;;;;;5055934;28;20044;-82
2024/01/17 04:11:26;;;;;;;7.82;5.25;;;;;;;;;;5056493;28;20048;-82
2024/01/17 04:13:51;;;;;;;9.82;4.38;;;;;;;;;;5055647;28;20033;-81
2024/01/17 04:16:17;;;;;;;9.60;5.50;;;;;;;;;;5055312;28;20382;-83
2024/01/17 04:18:43;;;;;;;8.13;4.53;;;;;;;;;;5056267;28;20037;-82
2024/01/17 04:21:08;;;;;;;10.10;5.47;;;;;;;;;;5056311;28;20039;-81
2024/01/17 04:23:34;;;;;;;5.22;3.80;;;;;;;;;;5056808;28;20075;-83
2024/01/17 04:25:59;;;;;;;4.55;3.25;;;;;;;;;;5054241;28;20025;-83
2024/01/17 04:28:24;;;;;;;7.38;4.93;;;;;;;;;;5056791;28;20087;-83
2024/01/17 04:30:50;;;;;;;8.82;5.32;;;;;;;;;;5056088;28;20036;-82
2024/01/17 04:33:16;;;;;;;11.70;5.75;;;;;;;;;;5054996;28;20517;-83
2024/01/17 04:35:41;;;;;;;12.95;5.88;;;;;;;;;;5056210;28;20060;-81
2024/01/17 04:38:07;;;;;;;5.35;3.55;;;;;;;;;;5055533;28;20536;-81
2024/01/17 04:40:32;;;;;;;5.03;3.90;;;;;;;;;;5054806;28;20079;-81
2024/01/17 04:42:57;;;;;;;6.68;3.60;;;;;;;;;;5055527;28;20041;-81
2024/01/17 04:45:23;;;;;;;5.65;3.80;;;;;;;;;;5056138;28;20047;-81
2024/01/17 04:47:48;;;;;;;5.35;3.42;;;;;;;;;;5054184;28;20041;-80
2024/01/17 04:50:14;;;;;;;8.43;3.75;;;;;;;;;;5054099;28;20045;-82
2024/01/17 04:52:39;;;;;;;4.45;3.45;;;;;;;;;;5055823;28;20032;-81
2024/01/17 04:55:07;;;;;;;4.72;3.20;;;;;;;;;;5055685;28;20048;-81
2024/01/17 04:57:33;;;;;;;4.35;3.28;;;;;;;;;;5055628;28;20603;-80
2024/01/17 04:59:58;;;;;;;6.00;3.38;;;;;;;;;;5058503;28;20072;-80
2024/01/17 05:02:23;;;;;;;6.95;3.65;;;;;;;;;;5059665;28;20045;-81
2024/01/17 05:04:49;;;;;;;4.35;3.28;;;;;;;;;;5058127;28;20052;-80
2024/01/17 05:07:15;;;;;;;3.50;3.00;;;;;;;;;;5059698;28;20521;-82
2024/01/17 05:09:40;;;;;;;3.90;3.17;;;;;;;;;;5059650;28;20044;-81
2024/01/17 05:12:06;;;;;;;5.30;3.90;;;;;;;;;;5059358;28;20040;-80
2024/01/17 05:14:31;;;;;;;4.68;3.47;;;;;;;;;;5059971;28;20094;-83
2024/01/17 05:16:56;;;;;;;6.07;3.53;;;;;;;;;;5059103;28;20033;-81
2024/01/17 05:19:22;;;;;;;3.38;3.08;;;;;;;;;;5057766;28;20079;-82
2024/01/17 05:21:47;;;;;;;5.57;3.55;;;;;;;;;;5058858;28;20033;-82
2024/01/17 05:24:13;;;;;;;4.03;2.65;;;;;;;;;;5058592;28;20635;-81
2024/01/17 05:26:38;;;;;;;6.20;4.35;;;;;;;;;;5059243;28;20036;-81
2024/01/17 05:29:03;;;;;;;8.73;6.00;;;;;;;;;;5058794;28;20029;-81
2024/01/17 05:31:29;;;;;;;11.25;6.18;;;;;;;;;;5059091;28;20052;-81
2024/01/17 05:33:54;;;;;;;9.82;6.40;;;;;;;;;;5058229;28;20029;-82
2024/01/17 05:36:19;;;;;;;11.93;7.28;;;;;;;;;;5057819;28;20037;-82
2024/01/17 05:38:44;;;;;;;7.53;4.28;;;;;;;;;;5055985;28;20053;-82
2024/01/17 05:41:10;;;;;;;6.45;4.50;;;;;;;;;;5057605;28;20044;-81
2024/01/17 05:43:35;;;;;;;6.38;4.90;;;;;;;;;;5057576;28;20033;-81
2024/01/17 05:46:00;;;;;;;12.73;7.40;;;;;;;;;;5056110;28;20033;-81
2024/01/17 05:48:26;;;;;;;9.45;5.43;;;;;;;;;;5053129;28;20033;-82
2024/01/17 05:50:51;;;;;;;8.13;5.05;;;;;;;;;;5058230;28;20045;-83
2024/01/17 05:53:17;;;;;;;12.38;6.05;;;;;;;;;;5058120;28;20036;-82
2024/01/17 05:55:42;;;;;;;9.13;5.78;;;;;;;;;;5058542;28;20132;-83
2024/01/17 05:58:09;;;;;;;10.25;6.40;;;;;;;;;;5058442;28;20124;-81
2024/01/17 06:00:34;;;;;;;10.38;5.60;;;;;;;;;;4990112;28;20044;-82
2024/01/17 06:03:00;;;;;;;8.75;5.10;;;;;;;;;;5056326;28;20039;-81
2024/01/17 06:05:25;;;;;;;11.95;6.63;;;;;;;;;;5057496;28;20073;-82
2024/01/17 06:07:51;;;;;;;12.43;6.50;;;;;;;;;;5056984;28;20029;-83
2024/01/17 06:10:17;;;;;;;14.43;6.72;;;;;;;;;;5057742;28;20031;-81
2024/01/17 06:12:42;;;;;;;37.47;8.88;;;;;;;;;;5057941;28;20402;-80
2024/01/17 06:15:09;;;;;;;146.20;13.13;;;;;;;;;;5058289;28;20037;-83
2024/01/17 06:17:35;;;;;;;12.23;7.55;;;;;;;;;;5061231;28;20037;-82
2024/01/17 06:20:00;;;;;;;71.30;7.20;;;;;;;;;;5057223;28;20537;-83
2024/01/17 06:22:26;;;;;;;17.08;7.10;;;;;;;;;;5058012;28;20029;-82
2024/01/17 06:24:51;;;;;;;12.68;7.43;;;;;;;;;;5056697;28;20041;-82
2024/01/17 06:27:17;;;;;;;17.13;8.80;;;;;;;;;;5057125;28;20025;-83
2024/01/17 06:29:43;;;;;;;13.15;7.50;;;;;;;;;;5057168;28;20028;-83
2024/01/17 06:32:08;;;;;;;15.77;8.50;;;;;;;;;;5057077;28;20052;-83
2024/01/17 06:34:34;;;;;;;18.45;8.50;;;;;;;;;;5055877;28;20041;-82
2024/01/17 06:36:59;;;;;;;17.65;9.05;;;;;;;;;;5057399;28;20139;-81
2024/01/17 06:39:26;;;;;;;21.10;9.73;;;;;;;;;;5056124;28;20041;-83
2024/01/17 06:41:52;;;;;;;22.65;9.75;;;;;;;;;;5057495;28;20025;-83
2024/01/17 06:44:17;;;;;;;18.08;8.77;;;;;;;;;;5057126;28;20059;-83
2024/01/17 06:46:42;;;;;;;63.55;9.63;;;;;;;;;;5055476;28;20045;-83
2024/01/17 06:49:08;;;;;;;17.92;8.07;;;;;;;;;;5055823;28;20045;-83
2024/01/17 06:51:33;;;;;;;20.00;7.95;;;;;;;;;;5056744;28;20044;-80
2024/01/17 06:53:59;;;;;;;21.90;9.05;;;;;;;;;;5056432;28;20040;-83
2024/01/17 06:56:24;;;;;;;18.95;8.25;;;;;;;;;;5055231;28;20041;-82
2024/01/17 06:58:49;;;;;;;16.70;8.05;;;;;;;;;;5011445;28;20128;-83
2024/01/17 07:01:15;;;;;;;18.45;8.77;;;;;;;;;;5056441;28;20029;-84
2024/01/17 07:03:40;;;;;;;17.58;7.35;;;;;;;;;;5055284;28;20152;-80
2024/01/17 07:06:05;;;;;;;21.85;9.90;;;;;;;;;;5054561;28;20560;-83
2024/01/17 07:08:31;;;;;;;20.48;9.23;;;;;;;;;;5053047;28;20075;-85
2024/01/17 07:10:56;;;;;;;32.03;7.57;;;;;;;;;;5056267;28;20036;-84
2024/01/17 07:13:21;;;;;;;19.80;9.55;;;;;;;;;;5026170;28;20480;-82
2024/01/17 07:15:47;;;;;;;21.00;9.45;;;;;;;;;;5056413;28;20037;-82
2024/01/17 07:18:12;;;;;;;14.60;8.65;;;;;;;;;;5054093;28;20023;-82
2024/01/17 07:20:37;;;;;;;16.33;8.02;;;;;;;;;;5052287;28;20203;-81
2024/01/17 07:23:03;;;;;;;17.10;7.97;;;;;;;;;;5054871;28;20041;-84
2024/01/17 07:25:28;;;;;;;17.77;9.45;;;;;;;;;;5054018;28;20116;-84
2024/01/17 07:27:53;;;;;;;13.38;7.85;;;;;;;;;;5055086;28;20036;-82
2024/01/17 07:30:19;;;;;;;12.00;5.50;;;;;;;;;;5051543;28;20049;-83
2024/01/17 07:32:50;;;;;;;14.45;7.72;;;;;;;;;;4984685;28;20480;-82
2024/01/17 07:35:15;;;;;;;14.00;6.30;;;;;;;;;;5055349;28;20451;-81
2024/01/17 07:37:40;;;;;;;19.08;7.45;;;;;;;;;;5053722;28;20036;-82
2024/01/17 07:40:08;;;;;;;10.70;6.93;;;;;;;;;;5053661;28;20458;-82
2024/01/17 07:42:34;;;;;;;13.05;7.20;;;;;;;;;;5054035;28;20048;-81
2024/01/17 07:44:59;;;;;;;17.08;8.88;;;;;;;;;;5054423;28;20086;-82
2024/01/17 07:47:24;;;;;;;13.63;8.65;;;;;;;;;;5066473;28;20044;-80
2024/01/17 07:49:50;;;;;;;16.75;9.93;;;;;;;;;;5053279;28;20037;-80
2024/01/17 07:52:15;;;;;;;14.82;8.38;;;;;;;;;;5027763;28;20041;-81
2024/01/17 07:54:40;;;;;;;15.07;9.73;;;;;;;;;;5054559;28;20033;-80
2024/01/17 07:57:06;;;;;;;12.88;6.68;;;;;;;;;;5053963;28;20044;-80
2024/01/17 07:59:31;;;;;;;13.63;7.53;;;;;;;;;;5055454;28;20132;-81
2024/01/17 08:01:57;;;;;;;18.17;11.05;;;;;;;;;;5051331;28;20049;-81
2024/01/17 08:04:23;;;;;;;15.60;9.75;;;;;;;;;;5052756;28;20036;-81
2024/01/17 08:06:48;;;;;;;11.73;6.97;;;;;;;;;;5054260;28;20044;-81
2024/01/17 08:09:20;;;;;;;13.95;7.53;;;;;;;;;;5053085;28;20127;-82
2024/01/17 08:11:54;;;;;;;12.57;5.80;;;;;;;;;;5056197;28;20126;-82
2024/01/17 08:14:20;;;;;;;10.45;5.80;;;;;;;;;;5087632;28;20597;-82
2024/01/17 08:16:46;;;;;;;72.50;8.07;;;;;;;;;;4982506;28;20051;-81
2024/01/17 08:19:12;;;;;;;8.05;5.55;;;;;;;;;;4991277;28;20045;-82
2024/01/17 08:21:38;;;;;;;13.85;6.70;;;;;;;;;;5055715;28;20055;-80
2024/01/17 08:24:04;;;;;;;12.88;6.88;;;;;;;;;;5056163;28;20580;-80
2024/01/17 08:26:29;;;;;;;13.05;6.00;;;;;;;;;;5056379;28;20440;-80
2024/01/17 08:28:55;;;;;;;13.65;7.70;;;;;;;;;;5016504;28;20459;-81
2024/01/17 08:31:20;;;;;;;8.30;5.80;;;;;;;;;;5040434;28;20600;-81
2024/01/17 08:33:45;;;;;;;7.65;5.13;;;;;;;;;;5045689;28;20044;-82
2024/01/17 08:36:12;;;;;;;11.63;6.68;;;;;;;;;;5009024;28;20060;-81
2024/01/17 08:38:37;;;;;;;8.52;5.50;;;;;;;;;;4964036;28;20036;-79
2024/01/17 08:41:02;;;;;;;5.95;4.13;;;;;;;;;;4957325;28;20126;-81
2024/01/17 08:43:28;;;;;;;9.95;4.13;;;;;;;;;;4997232;28;20044;-82
2024/01/17 08:45:54;;;;;;;6.03;3.67;;;;;;;;;;5058748;28;20123;-81
2024/01/17 08:48:19;;;;;;;5.05;3.15;;;;;;;;;;5050368;28;20037;-82
2024/01/17 08:50:45;;;;;;;6.45;3.85;;;;;;;;;;4985937;28;20322;-81
2024/01/17 08:53:10;;;;;;;6.53;3.88;;;;;;;;;;4999716;28;20040;-82
2024/01/17 08:55:36;;;;;;;8.07;4.65;;;;;;;;;;5057769;28;20037;-81
2024/01/17 08:58:01;;;;;;;7.10;4.78;;;;;;;;;;5059605;28;20045;-81
2024/01/17 09:00:26;;;;;;;22.83;8.38;;;;;;;;;;5059115;28;20037;-81
2024/01/17 09:02:52;;;;;;;14.88;7.68;;;;;;;;;;5059253;28;20044;-81
2024/01/17 09:05:18;;;;;;;34.75;8.38;;;;;;;;;;5062184;28;20033;-79
2024/01/17 09:07:45;;;;;;;12.77;5.78;;;;;;;;;;4997902;28;20111;-81
2024/01/17 09:10:13;;;;;;;14.68;6.65;;;;;;;;;;4955168;28;20043;-81
2024/01/17 09:12:38;;;;;;;15.65;5.75;;;;;;;;;;5010862;28;20156;-81
2024/01/17 09:15:04;;;;;;;75.10;8.35;;;;;;;;;;5056584;28;20065;-82
2024/01/17 09:17:29;;;;;;;9.65;4.75;;;;;;;;;;5058850;28;20571;-81
2024/01/17 09:19:55;;;;;;;6.03;3.85;;;;;;;;;;5059660;28;20455;-81
2024/01/17 09:22:20;;;;;;;5.53;2.90;;;;;;;;;;5058599;28;20732;-81
2024/01/17 09:24:46;;;;;;;3.72;3.00;;;;;;;;;;5058950;28;20056;-80
2024/01/17 09:27:11;;;;;;;2.65;2.40;;;;;;;;;;5058239;28;20029;-80
2024/01/17 09:29:36;;;;;;;4.72;2.47;;;;;;;;;;5058986;28;20044;-82
2024/01/17 09:32:01;;;;;;;3.47;2.20;;;;;;;;;;4988516;28;20120;-80
2024/01/17 09:34:28;;;;;;;4.50;3.40;;;;;;;;;;5008071;28;20406;-79
2024/01/17 09:36:53;;;;;;;3.13;2.15;;;;;;;;;;5057091;28;20056;-80
2024/01/17 09:39:19;;;;;;;3.83;2.13;;;;;;;;;;5046066;28;20406;-80
2024/01/17 09:41:44;;;;;;;1.65;1.55;;;;;;;;;;5004566;28;20441;-81
2024/01/17 09:44:11;;;;;;;4.07;2.97;;;;;;;;;;5057706;28;20081;-83
2024/01/17 09:46:40;;;;;;;5.10;3.75;;;;;;;;;;5057608;28;20052;-80
2024/01/17 09:49:05;;;;;;;7.03;4.05;;;;;;;;;;5009672;28;20039;-82
2024/01/17 09:51:32;;;;;;;6.78;4.28;;;;;;;;;;5025269;28;20258;-83
2024/01/17 09:54:00;;;;;;;4.63;3.22;;;;;;;;;;5059379;28;20047;-82
2024/01/17 09:56:28;;;;;;;4.88;2.90;;;;;;;;;;5019150;28;20115;-82
2024/01/17 09:58:55;;;;;;;4.50;3.15;;;;;;;;;;5059841;28;20037;-82
2024/01/17 10:01:23;;;;;;;5.47;4.53;;;;;;;;;;5059043;28;20036;-79
2024/01/17 10:03:51;;;;;;;9.95;5.90;;;;;;;;;;5057291;28;20056;-81
2024/01/17 10:06:17;;;;;;;3.65;2.60;;;;;;;;;;5046231;28;20049;-81
2024/01/17 10:08:45;;;;;;;7.82;3.97;;;;;;;;;;5027251;28;20045;-79
2024/01/17 10:11:12;;;;;;;5.50;3.25;;;;;;;;;;5038237;28;20100;-80
2024/01/17 10:13:37;;;;;;;5.70;4.63;;;;;;;;;;5057449;28;20045;-81
2024/01/17 10:16:03;;;;;;;5.32;3.13;;;;;;;;;;5014848;28;20046;-79
2024/01/17 10:18:31;;;;;;;3.80;3.30;;;;;;;;;;5020314;28;20112;-80
2024/01/17 10:20:57;;;;;;;3.85;3.15;;;;;;;;;;5058344;28;20037;-80
2024/01/17 10:23:24;;;;;;;3.40;3.10;;;;;;;;;;5039438;28;20478;-81
2024/01/17 10:25:51;;;;;;;3.45;3.10;;;;;;;;;;5056754;28;20247;-81
2024/01/17 10:28:17;;;;;;;6.78;3.50;;;;;;;;;;5057420;28;20037;-80
2024/01/17 10:30:42;;;;;;;7.50;3.88;;;;;;;;;;5028743;28;20046;-81
2024/01/17 10:33:08;;;;;;;6.00;3.88;;;;;;;;;;5030487;28;20033;-83
2024/01/17 10:35:33;;;;;;;6.15;4.75;;;;;;;;;;4959950;28;20035;-82
2024/01/17 10:37:59;;;;;;;4.75;3.63;;;;;;;;;;5056493;28;20047;-82
2024/01/17 10:40:25;;;;;;;7.05;4.40;;;;;;;;;;5058424;28;20045;-81
2024/01/17 10:43:09;;;;;;;7.03;5.18;;;;;;;;;;5058316;28;20063;-82
2024/01/17 10:45:36;;;;;;;7.82;4.95;;;;;;;;;;5034624;28;20081;-81
2024/01/17 10:48:01;;;;;;;7.78;4.00;;;;;;;;;;4956799;28;20034;-80
2024/01/17 10:50:27;;;;;;;11.15;5.05;;;;;;;;;;4956451;28;20048;-80
2024/01/17 10:53:08;;;;;;;8.50;4.65;;;;;;;;;;5049652;28;20064;-80
2024/01/17 10:55:35;;;;;;;9.45;3.78;;;;;;;;;;5013020;28;20031;-81
2024/01/17 10:58:06;;;;;;;6.07;4.35;;;;;;;;;;5024529;28;20054;-81
2024/01/17 11:00:35;;;;;;;8.45;4.60;;;;;;;;;;4968305;28;20123;-80
2024/01/17 11:03:08;;;;;;;10.38;4.45;;;;;;;;;;4956124;28;20099;-79
2024/01/17 11:05:53;;;;;;;7.60;4.70;;;;;;;;;;4964512;28;20035;-79
2024/01/17 11:08:18;;;;;;;6.68;3.38;;;;;;;;;;4984369;28;20370;-79
2024/01/17 11:10:44;;;;;;;6.15;4.10;;;;;;;;;;5056964;28;20051;-81
2024/01/17 11:13:12;;;;;;;5.30;4.03;;;;;;;;;;5055537;28;20079;-81
2024/01/17 11:15:38;;;;;;;4.40;3.25;;;;;;;;;;5054014;28;20061;-80
2024/01/17 11:18:05;;;;;;;3.25;2.53;;;;;;;;;;5054588;28;20498;-80
2024/01/17 11:20:30;;;;;;;6.65;2.35;;;;;;;;;;5057802;28;20044;-80
2024/01/17 11:22:57;;;;;;;3.47;2.50;;;;;;;;;;5057686;28;20037;-80
2024/01/17 11:25:34;;;;;;;3.00;2.25;;;;;;;;;;5057267;28;20037;-81
2024/01/17 11:28:21;;;;;;;1.60;1.50;;;;;;;;;;5053307;28;20043;-80
2024/01/17 11:31:06;;;;;;;3.67;2.60;;;;;;;;;;5057612;28;20041;-79
2024/01/17 11:33:32;;;;;;;4.45;3.03;;;;;;;;;;5055978;28;20129;-79
2024/01/17 11:35:58;;;;;;;3.33;3.03;;;;;;;;;;5057274;28;20071;-79
2024/01/17 11:38:23;;;;;;;3.63;2.00;;;;;;;;;;5056433;28;20036;-79
2024/01/17 11:41:06;;;;;;;3.40;2.20;;;;;;;;;;5056058;28;20045;-80
2024/01/17 11:43:35;;;;;;;3.28;2.05;;;;;;;;;;5052824;28;20029;-80
2024/01/17 11:46:02;;;;;;;2.90;1.92;;;;;;;;;;5054578;28;20052;-80
2024/01/17 11:48:29;;;;;;;1.75;1.65;;;;;;;;;;5054071;28;20036;-80
2024/01/17 11:50:58;;;;;;;1.95;1.75;;;;;;;;;;5052844;28;20132;-80
2024/01/17 11:53:25;;;;;;;2.17;1.98;;;;;;;;;;5054002;28;20775;-80
2024/01/17 11:55:51;;;;;;;2.78;1.90;;;;;;;;;;5053963;28;20040;-81
2024/01/17 11:58:16;;;;;;;2.70;1.77;;;;;;;;;;5056012;28;20040;-81
2024/01/17 12:00:42;;;;;;;2.97;1.40;;;;;;;;;;5054781;28;20053;-80
2024/01/17 12:03:07;;;;;;;1.63;1.40;;;;;;;;;;5054381;28;20024;-80
2024/01/17 12:05:38;;;;;;;1.63;1.52;;;;;;;;;;5055646;28;20036;-81
2024/01/17 12:08:05;;;;;;;2.25;1.67;;;;;;;;;;5052241;28;20037;-80
2024/01/17 12:10:31;;;;;;;1.73;1.48;;;;;;;;;;5055023;28;20417;-80
2024/01/17 12:12:57;;;;;;;1.33;1.23;;;;;;;;;;5015963;28;20040;-79
2024/01/17 12:15:23;;;;;;;1.60;1.23;;;;;;;;;;5055514;28;20036;-79
2024/01/17 12:17:50;;;;;;;0.90;0.90;;;;;;;;;;5055620;28;20060;-79
2024/01/17 12:20:18;;;;;;;1.17;1.17;;;;;;;;;;5053160;28;20112;-81
2024/01/17 12:22:51;;;;;;;1.20;1.20;;;;;;;;;;5053645;28;20052;-80
2024/01/17 12:25:17;;;;;;;2.30;1.40;;;;;;;;;;5053934;28;20033;-81
2024/01/17 12:27:42;;;;;;;1.90;1.20;;;;;;;;;;5053955;28;20037;-80
2024/01/17 12:30:08;;;;;;;1.10;1.10;;;;;;;;;;5054039;28;20043;-80
2024/01/17 12:32:34;;;;;;;1.20;1.20;;;;;;;;;;5055999;28;20025;-79
2024/01/17 12:34:59;;;;;;;1.73;1.30;;;;;;;;;;5055328;28;20029;-79
2024/01/17 12:37:25;;;;;;;1.40;1.30;;;;;;;;;;5002631;28;20024;-80
2024/01/17 12:39:50;;;;;;;1.58;1.05;;;;;;;;;;5054648;28;20065;-79
2024/01/17 12:42:17;;;;;;;1.10;1.10;;;;;;;;;;5054343;28;20021;-81
2024/01/17 12:44:44;;;;;;;1.10;1.10;;;;;;;;;;5054225;28;20055;-80
2024/01/17 12:47:10;;;;;;;1.10;1.00;;;;;;;;;;5055510;28;20539;-81
2024/01/17 12:49:37;;;;;;;0.80;0.80;;;;;;;;;;5054284;28;20041;-79
2024/01/17 12:52:03;;;;;;;1.65;1.10;;;;;;;;;;5055636;28;20044;-81
2024/01/17 12:54:30;;;;;;;1.20;1.10;;;;;;;;;;5034960;28;20519;-81
2024/01/17 12:56:56;;;;;;;3.35;1.38;;;;;;;;;;5056016;28;20021;-80
2024/01/17 12:59:21;;;;;;;1.63;1.25;;;;;;;;;;5055625;28;20033;-80
2024/01/17 13:01:47;;;;;;;1.23;1.15;;;;;;;;;;5054201;28;20086;-81
2024/01/17 13:04:13;;;;;;;2.15;1.20;;;;;;;;;;5052716;28;20076;-81
2024/01/17 13:06:49;;;;;;;3.03;1.38;;;;;;;;;;5052454;28;20041;-80
2024/01/17 13:09:20;;;;;;;1.42;1.33;;;;;;;;;;5054255;28;20033;-81
2024/01/17 13:11:50;;;;;;;3.47;1.63;;;;;;;;;;5052673;28;20087;-82
2024/01/17 13:14:20;;;;;;;2.65;1.65;;;;;;;;;;5054232;28;20043;-81
2024/01/17 13:16:46;;;;;;;1.67;1.40;;;;;;;;;;5012153;28;20051;-80
2024/01/17 13:19:13;;;;;;;1.65;1.20;;;;;;;;;;5055689;28;20116;-79
2024/01/17 13:21:41;;;;;;;1.33;1.23;;;;;;;;;;5058619;28;20084;-81
2024/01/17 13:24:06;;;;;;;1.85;1.38;;;;;;;;;;5051619;28;20047;-79
2024/01/17 13:26:35;;;;;;;1.17;1.17;;;;;;;;;;5060160;28;20085;-79
2024/01/17 13:29:02;;;;;;;1.35;1.25;;;;;;;;;;5059400;28;20121;-81
2024/01/17 13:31:27;;;;;;;3.83;1.23;;;;;;;;;;5040040;28;20040;-81
2024/01/17 13:33:53;;;;;;;3.30;1.33;;;;;;;;;;5058116;28;20401;-80
2024/01/17 13:36:18;;;;;;;2.15;1.10;;;;;;;;;;5059013;28;20142;-80
2024/01/17 13:38:46;;;;;;;1.45;1.30;;;;;;;;;;5061639;28;20037;-79
2024/01/17 13:41:11;;;;;;;2.35;1.27;;;;;;;;;;5058918;28;20081;-80
2024/01/17 13:43:37;;;;;;;1.38;1.30;;;;;;;;;;5059558;28;20045;-81
2024/01/17 13:46:02;;;;;;;1.58;1.48;;;;;;;;;;5028917;28;20492;-80
2024/01/17 13:48:28;;;;;;;1.90;1.17;;;;;;;;;;5026923;28;20040;-80
2024/01/17 13:50:54;;;;;;;1.05;1.02;;;;;;;;;;5060239;28;20040;-80
2024/01/17 13:53:29;;;;;;;1.92;1.20;;;;;;;;;;5056811;28;20037;-81
2024/01/17 13:55:57;;;;;;;4.90;1.40;;;;;;;;;;5058959;28;20041;-81
2024/01/17 13:58:22;;;;;;;1.10;1.00;;;;;;;;;;5058580;28;20037;-81
2024/01/17 14:00:52;;;;;;;1.40;1.30;;;;;;;;;;5058291;28;20040;-80
2024/01/17 14:03:18;;;;;;;1.52;1.40;;;;;;;;;;5059320;28;20032;-80
2024/01/17 14:05:43;;;;;;;3.38;1.40;;;;;;;;;;5061766;28;20551;-79
2024/01/17 14:08:09;;;;;;;1.20;1.10;;;;;;;;;;5061694;28;20044;-80
2024/01/17 14:10:35;;;;;;;7.63;1.45;;;;;;;;;;5058465;28;20041;-79
2024/01/17 14:13:01;;;;;;;1.83;1.33;;;;;;;;;;5057601;28;20183;-80
2024/01/17 14:15:27;;;;;;;1.75;1.40;;;;;;;;;;5053242;28;20394;-80
2024/01/17 14:17:53;;;;;;;2.03;1.10;;;;;;;;;;5054291;28;20116;-79
2024/01/17 14:20:19;;;;;;;1.50;1.02;;;;;;;;;;5060437;28;20048;-79
2024/01/17 14:22:46;;;;;;;1.63;1.48;;;;;;;;;;5061146;28;20053;-79
2024/01/17 14:25:14;;;;;;;1.30;1.20;;;;;;;;;;5061236;28;20051;-79
2024/01/17 14:27:40;;;;;;;1.10;1.00;;;;;;;;;;5055196;28;20041;-79
2024/01/17 14:30:07;;;;;;;8.18;1.17;;;;;;;;;;5059801;28;20087;-79
2024/01/17 14:32:33;;;;;;;2.25;1.00;;;;;;;;;;5058667;28;20037;-79